»·PEaware :: N603PM KTEX-KSAF

N603PM :: KTEX-KSAF

FLIGHT INFORMATION

Flight Status: Arrived
Operator: Privately registered:
United States
More flights under this callsign
Pilot: Charles M. (41337)
Aircraft: BEECH AIRCRAFT BARON
(BE58)
More flights by this aircraft type
Origin: KTEX Telluride Regl
United States
Destination: KSAF Santa Fe Mun
United States
More flights between these airports :: More routes between these airports
Route:
File this flight plan on PilotEdge
Remarks:
Altitude:
(Current/Filed)
11,500ft
Speed:
(Current/Filed)
185kts
Departed: 16-Jun-23 06:54 PM
Arrived: 16-Jun-23 08:24 PM
Distance/Time
Traveled:
165nm/1:30
Distance/Time
To Go:
Arrived

Flight Plot

Page will automatically refresh every two minutes.

Flight plan parsing failed; only flown route is shown


Map Options




Map Legend


Flown Route
Filed Route
Departure Airport
Arrival Airport
Navaid (VOR, NDB)
Fix

Horizontal Profiles

Position Reports

Time Latitude Longitude Heading Altitude Ground
Speed
16-Jun-23 18:43 37.953994 -107.901650 16 9052ft 0kts
16-Jun-23 18:44 37.953994 -107.901650 16 9052ft 0kts
16-Jun-23 18:45 37.953994 -107.901650 16 9052ft 0kts
16-Jun-23 18:46 37.953994 -107.901650 16 9052ft 0kts
16-Jun-23 18:47 37.953994 -107.901650 16 9052ft 0kts
16-Jun-23 18:48 37.953968 -107.901500 169 9052ft 1kts
16-Jun-23 18:49 37.953616 -107.901342 155 9052ft 5kts
16-Jun-23 18:50 37.952798 -107.903820 285 9030ft 27kts
16-Jun-23 18:51 37.955542 -107.916555 287 9033ft 31kts
16-Jun-23 18:52 37.956020 -107.919161 101 9038ft 0kts
16-Jun-23 18:53 37.953261 -107.906022 103 9027ft 101kts
16-Jun-23 18:54 37.942607 -107.876002 172 9837ft 105kts
16-Jun-23 18:55 37.939189 -107.914568 282 10351ft 142kts
16-Jun-23 18:56 37.951728 -107.962993 290 11140ft 148kts
16-Jun-23 18:57 37.968506 -108.015121 289 11465ft 170kts
16-Jun-23 18:58 37.985489 -108.075307 288 11468ft 184kts
16-Jun-23 18:59 38.002603 -108.136056 288 11410ft 185kts
16-Jun-23 19:00 38.019674 -108.197010 288 11357ft 184kts
16-Jun-23 19:01 38.038558 -108.253637 292 11292ft 166kts
16-Jun-23 19:02 38.030332 -108.305748 244 11256ft 158kts
16-Jun-23 19:03 38.010770 -108.356140 244 11228ft 166kts
16-Jun-23 19:04 37.991043 -108.408872 246 11229ft 166kts
16-Jun-23 19:05 37.972142 -108.462596 246 11220ft 168kts
16-Jun-23 19:06 37.952638 -108.519997 247 11226ft 182kts
16-Jun-23 19:07 37.932903 -108.579044 248 11209ft 175kts
16-Jun-23 19:08 37.911831 -108.634547 232 11209ft 176kts
16-Jun-23 19:09 37.891884 -108.691277 248 11218ft 179kts
16-Jun-23 19:10 37.872250 -108.749943 248 11200ft 179kts
16-Jun-23 19:12 37.852292 -108.807554 247 11211ft 183kts
16-Jun-23 19:13 37.831758 -108.865738 247 11203ft 180kts
16-Jun-23 19:14 37.811474 -108.923179 246 11198ft 179kts
16-Jun-23 19:15 37.769285 -108.921600 131 11203ft 196kts
16-Jun-23 19:16 37.735651 -108.867183 146 11206ft 197kts
16-Jun-23 19:17 37.691734 -108.828001 147 11205ft 192kts
16-Jun-23 19:18 37.648120 -108.789482 147 11205ft 190kts
16-Jun-23 19:19 37.604464 -108.751075 147 11227ft 191kts
16-Jun-23 19:20 37.561343 -108.712999 147 11257ft 189kts
16-Jun-23 19:21 37.517599 -108.674367 147 11279ft 194kts
16-Jun-23 19:22 37.472816 -108.635011 148 11303ft 198kts
16-Jun-23 19:23 37.426824 -108.594398 147 11321ft 203kts
16-Jun-23 19:24 37.380559 -108.553954 151 11341ft 203kts
16-Jun-23 19:25 37.331439 -108.518668 154 11331ft 201kts
16-Jun-23 19:26 37.284039 -108.484776 153 11313ft 193kts
16-Jun-23 19:27 37.238372 -108.452058 154 11307ft 192kts
16-Jun-23 19:28 37.190956 -108.417870 154 11289ft 200kts
16-Jun-23 19:29 37.142225 -108.382759 154 11254ft 202kts
16-Jun-23 19:30 37.094312 -108.348125 154 11216ft 196kts
16-Jun-23 19:31 37.046955 -108.314012 155 11197ft 195kts
16-Jun-23 19:32 37.000338 -108.280664 155 11217ft 193kts
16-Jun-23 19:33 36.953812 -108.247109 155 11247ft 192kts
16-Jun-23 19:34 36.907715 -108.213868 154 11265ft 191kts
16-Jun-23 19:35 36.861661 -108.180649 154 11286ft 191kts
16-Jun-23 19:36 36.815990 -108.147658 154 11304ft 190kts
16-Jun-23 19:37 36.770017 -108.114502 154 11301ft 191kts
16-Jun-23 19:37 36.736591 -108.079974 122 11292ft 195kts
16-Jun-23 19:39 36.697793 -108.017830 132 11265ft 198kts
16-Jun-23 19:40 36.663577 -107.963635 131 11230ft 196kts
16-Jun-23 19:41 36.630316 -107.910824 131 11188ft 192kts
16-Jun-23 19:42 36.597031 -107.857958 131 11163ft 196kts
16-Jun-23 19:43 36.563010 -107.803891 131 11148ft 199kts
16-Jun-23 19:43 36.534757 -107.759179 131 11141ft 196kts
16-Jun-23 19:44 36.501215 -107.705889 131 11137ft 195kts
16-Jun-23 19:45 36.467339 -107.652226 131 11138ft 197kts
16-Jun-23 19:47 36.427650 -107.589315 132 11138ft 198kts
16-Jun-23 19:48 36.393616 -107.535580 131 11141ft 198kts
16-Jun-23 19:48 36.365613 -107.491245 131 11285ft 189kts
16-Jun-23 19:49 36.333149 -107.440110 131 11363ft 190kts
16-Jun-23 19:50 36.299951 -107.387671 131 11372ft 194kts
16-Jun-23 19:51 36.266564 -107.335051 131 11376ft 194kts
16-Jun-23 19:53 36.227195 -107.273122 131 11375ft 196kts
16-Jun-23 19:53 36.199143 -107.228965 131 11374ft 194kts
16-Jun-23 19:54 36.160559 -107.184604 163 11380ft 189kts
16-Jun-23 19:55 36.110282 -107.168712 171 11378ft 186kts
16-Jun-23 19:56 36.060209 -107.152577 170 11375ft 186kts
16-Jun-23 19:57 36.010269 -107.136014 170 11363ft 185kts
16-Jun-23 19:58 35.960226 -107.119404 170 11360ft 187kts
16-Jun-23 19:59 35.909846 -107.102585 170 11354ft 187kts
16-Jun-23 20:00 35.859591 -107.085804 170 11347ft 187kts
16-Jun-23 20:01 35.810279 -107.069323 171 11327ft 183kts
16-Jun-23 20:02 35.760811 -107.052860 171 11325ft 185kts
16-Jun-23 20:03 35.711351 -107.036452 170 11320ft 183kts
16-Jun-23 20:04 35.661882 -107.019955 170 11316ft 185kts
16-Jun-23 20:05 35.611934 -107.003436 171 11315ft 186kts
16-Jun-23 20:06 35.562050 -106.986869 171 11302ft 185kts
16-Jun-23 20:07 35.513064 -106.967072 137 11284ft 194kts
16-Jun-23 20:08 35.513596 -106.900608 80 11280ft 200kts
16-Jun-23 20:09 35.514594 -106.833214 109 11285ft 200kts
16-Jun-23 20:10 35.505802 -106.766337 92 11273ft 201kts
16-Jun-23 20:11 35.505945 -106.697490 89 11267ft 201kts
16-Jun-23 20:12 35.508761 -106.628433 88 11269ft 202kts
16-Jun-23 20:13 35.512413 -106.558961 87 11264ft 203kts
16-Jun-23 20:14 35.516301 -106.489588 87 11264ft 204kts
16-Jun-23 20:15 35.520043 -106.422471 85 10810ft 183kts
16-Jun-23 20:16 35.523476 -106.363546 86 10332ft 166kts
16-Jun-23 20:17 35.526686 -106.307817 86 9910ft 159kts
16-Jun-23 20:18 35.529688 -106.256136 85 9408ft 146kts
16-Jun-23 20:19 35.532620 -106.205240 85 8906ft 162kts
16-Jun-23 20:20 35.539003 -106.152007 38 8446ft 149kts
16-Jun-23 20:21 35.574111 -106.125717 42 7701ft 146kts
16-Jun-23 20:22 35.602864 -106.100808 30 6514ft 96kts
16-Jun-23 20:23 35.618085 -106.087829 42 6335ft 24kts
16-Jun-23 20:24 35.617742 -106.086010 165 6335ft 9kts
16-Jun-23 20:25 35.616901 -106.084827 14 6329ft 0kts

Navigation Log

Ident Type
Flight plan parsing failed, navigation log unavailable